sensor_id;sensor_type;location;lat;lon;timestamp;temperature;humidity
51655;DHT22;37732;53.106;7.030;2024-01-07T00:02:11;0.10;99.90
51655;DHT22;37732;53.106;7.030;2024-01-07T00:04:37;0.20;99.90
51655;DHT22;37732;53.106;7.030;2024-01-07T00:07:04;0.30;99.90
51655;DHT22;37732;53.106;7.030;2024-01-07T00:09:30;0.70;99.90
51655;DHT22;37732;53.106;7.030;2024-01-07T00:11:55;0.20;99.90
51655;DHT22;37732;53.106;7.030;2024-01-07T00:14:21;0.40;99.90
51655;DHT22;37732;53.106;7.030;2024-01-07T00:16:47;-0.10;99.90
51655;DHT22;37732;53.106;7.030;2024-01-07T00:19:12;0.50;99.90
51655;DHT22;37732;53.106;7.030;2024-01-07T00:21:38;0.20;99.90
51655;DHT22;37732;53.106;7.030;2024-01-07T00:24:04;1.10;99.90
51655;DHT22;37732;53.106;7.030;2024-01-07T00:26:30;0.20;99.90
51655;DHT22;37732;53.106;7.030;2024-01-07T00:28:56;0.10;99.90
51655;DHT22;37732;53.106;7.030;2024-01-07T00:31:21;0.10;99.90
51655;DHT22;37732;53.106;7.030;2024-01-07T00:33:47;0.10;99.90
51655;DHT22;37732;53.106;7.030;2024-01-07T00:36:13;0.40;99.90
51655;DHT22;37732;53.106;7.030;2024-01-07T00:38:38;0.20;99.90
51655;DHT22;37732;53.106;7.030;2024-01-07T00:41:04;0.40;99.90
51655;DHT22;37732;53.106;7.030;2024-01-07T00:43:30;0.50;99.90
51655;DHT22;37732;53.106;7.030;2024-01-07T00:45:56;0.20;99.90
51655;DHT22;37732;53.106;7.030;2024-01-07T00:48:22;0.10;99.90
51655;DHT22;37732;53.106;7.030;2024-01-07T00:50:48;0.20;99.90
51655;DHT22;37732;53.106;7.030;2024-01-07T00:53:13;0.10;99.90
51655;DHT22;37732;53.106;7.030;2024-01-07T00:55:39;0.20;99.90
51655;DHT22;37732;53.106;7.030;2024-01-07T00:58:05;0.20;99.90
51655;DHT22;37732;53.106;7.030;2024-01-07T01:00:30;0.10;99.90
51655;DHT22;37732;53.106;7.030;2024-01-07T01:02:56;0.20;99.90
51655;DHT22;37732;53.106;7.030;2024-01-07T01:05:22;0.90;99.90
51655;DHT22;37732;53.106;7.030;2024-01-07T01:07:47;0.70;99.90
51655;DHT22;37732;53.106;7.030;2024-01-07T01:10:13;1.30;99.90
51655;DHT22;37732;53.106;7.030;2024-01-07T01:12:42;0.10;99.90
51655;DHT22;37732;53.106;7.030;2024-01-07T01:15:08;1.30;99.90
51655;DHT22;37732;53.106;7.030;2024-01-07T01:17:34;0.10;99.90
51655;DHT22;37732;53.106;7.030;2024-01-07T01:20:00;-0.30;99.90
51655;DHT22;37732;53.106;7.030;2024-01-07T01:22:26;0.10;99.90
51655;DHT22;37732;53.106;7.030;2024-01-07T01:24:51;0.10;99.90
51655;DHT22;37732;53.106;7.030;2024-01-07T01:27:19;0.10;99.90
51655;DHT22;37732;53.106;7.030;2024-01-07T01:29:44;0.10;99.90
51655;DHT22;37732;53.106;7.030;2024-01-07T01:32:10;0.10;99.90
51655;DHT22;37732;53.106;7.030;2024-01-07T01:34:36;-0.10;99.90
51655;DHT22;37732;53.106;7.030;2024-01-07T01:37:02;0.10;99.90
51655;DHT22;37732;53.106;7.030;2024-01-07T01:39:29;0.10;99.90
51655;DHT22;37732;53.106;7.030;2024-01-07T01:41:55;0.50;99.90
51655;DHT22;37732;53.106;7.030;2024-01-07T01:44:21;-0.90;99.90
51655;DHT22;37732;53.106;7.030;2024-01-07T01:46:47;0.10;99.90
51655;DHT22;37732;53.106;7.030;2024-01-07T01:49:13;0.00;99.90
51655;DHT22;37732;53.106;7.030;2024-01-07T01:51:39;0.00;99.90
51655;DHT22;37732;53.106;7.030;2024-01-07T01:54:05;0.00;99.90
51655;DHT22;37732;53.106;7.030;2024-01-07T01:56:32;0.00;99.90
51655;DHT22;37732;53.106;7.030;2024-01-07T01:58:59;0.30;99.90
51655;DHT22;37732;53.106;7.030;2024-01-07T02:03:55;0.00;99.90
51655;DHT22;37732;53.106;7.030;2024-01-07T02:06:21;-0.10;99.90
51655;DHT22;37732;53.106;7.030;2024-01-07T02:08:47;0.00;99.90
51655;DHT22;37732;53.106;7.030;2024-01-07T02:11:18;-0.40;99.90
51655;DHT22;37732;53.106;7.030;2024-01-07T02:13:44;0.00;99.90
51655;DHT22;37732;53.106;7.030;2024-01-07T02:16:10;-0.40;99.90
51655;DHT22;37732;53.106;7.030;2024-01-07T02:18:36;0.50;99.90
51655;DHT22;37732;53.106;7.030;2024-01-07T02:21:03;0.40;99.90
51655;DHT22;37732;53.106;7.030;2024-01-07T02:23:28;0.00;99.90
51655;DHT22;37732;53.106;7.030;2024-01-07T02:25:54;0.00;99.90
51655;DHT22;37732;53.106;7.030;2024-01-07T02:28:20;0.00;99.90
51655;DHT22;37732;53.106;7.030;2024-01-07T02:30:45;0.80;99.90
51655;DHT22;37732;53.106;7.030;2024-01-07T02:33:11;0.90;99.90
51655;DHT22;37732;53.106;7.030;2024-01-07T02:35:37;0.00;99.90
51655;DHT22;37732;53.106;7.030;2024-01-07T02:38:02;0.00;99.90
51655;DHT22;37732;53.106;7.030;2024-01-07T02:40:28;0.00;99.90
51655;DHT22;37732;53.106;7.030;2024-01-07T02:42:54;-0.30;99.90
51655;DHT22;37732;53.106;7.030;2024-01-07T02:45:21;0.40;99.90
51655;DHT22;37732;53.106;7.030;2024-01-07T02:47:47;0.90;99.90
51655;DHT22;37732;53.106;7.030;2024-01-07T02:50:12;-0.10;99.90
51655;DHT22;37732;53.106;7.030;2024-01-07T02:52:38;-0.10;99.90
51655;DHT22;37732;53.106;7.030;2024-01-07T02:55:04;-0.10;99.90
51655;DHT22;37732;53.106;7.030;2024-01-07T02:57:30;-0.10;99.90
51655;DHT22;37732;53.106;7.030;2024-01-07T02:59:55;-0.10;99.90
51655;DHT22;37732;53.106;7.030;2024-01-07T03:02:21;-0.10;99.90
51655;DHT22;37732;53.106;7.030;2024-01-07T03:04:47;-0.10;99.90
51655;DHT22;37732;53.106;7.030;2024-01-07T03:07:13;-0.10;99.90
51655;DHT22;37732;53.106;7.030;2024-01-07T03:09:38;-0.10;99.90
51655;DHT22;37732;53.106;7.030;2024-01-07T03:12:04;-0.10;99.90
51655;DHT22;37732;53.106;7.030;2024-01-07T03:14:30;-0.10;99.90
51655;DHT22;37732;53.106;7.030;2024-01-07T03:16:55;-0.20;99.90
51655;DHT22;37732;53.106;7.030;2024-01-07T03:19:21;0.90;99.90
51655;DHT22;37732;53.106;7.030;2024-01-07T03:21:48;-0.10;99.90
51655;DHT22;37732;53.106;7.030;2024-01-07T03:24:14;-0.10;99.90
51655;DHT22;37732;53.106;7.030;2024-01-07T03:26:40;-0.10;99.90
51655;DHT22;37732;53.106;7.030;2024-01-07T03:29:05;0.40;99.90
51655;DHT22;37732;53.106;7.030;2024-01-07T03:31:31;-0.10;99.90
51655;DHT22;37732;53.106;7.030;2024-01-07T03:33:57;-0.10;99.90
51655;DHT22;37732;53.106;7.030;2024-01-07T03:36:23;0.50;99.90
51655;DHT22;37732;53.106;7.030;2024-01-07T03:38:48;-0.10;99.90
51655;DHT22;37732;53.106;7.030;2024-01-07T03:41:18;-0.10;99.90
51655;DHT22;37732;53.106;7.030;2024-01-07T03:43:45;-0.10;99.90
51655;DHT22;37732;53.106;7.030;2024-01-07T03:46:11;0.10;99.90
51655;DHT22;37732;53.106;7.030;2024-01-07T03:48:36;-0.10;99.90
51655;DHT22;37732;53.106;7.030;2024-01-07T03:51:02;-0.10;99.90
51655;DHT22;37732;53.106;7.030;2024-01-07T03:53:28;-0.10;99.90
51655;DHT22;37732;53.106;7.030;2024-01-07T03:55:53;-0.10;99.90
51655;DHT22;37732;53.106;7.030;2024-01-07T03:58:20;0.00;99.90
51655;DHT22;37732;53.106;7.030;2024-01-07T04:00:45;-0.10;99.90
51655;DHT22;37732;53.106;7.030;2024-01-07T04:03:11;-0.10;99.90
51655;DHT22;37732;53.106;7.030;2024-01-07T04:05:37;-0.10;99.90
51655;DHT22;37732;53.106;7.030;2024-01-07T04:08:03;1.00;99.90
51655;DHT22;37732;53.106;7.030;2024-01-07T04:10:29;-0.10;99.90
51655;DHT22;37732;53.106;7.030;2024-01-07T04:12:55;0.00;99.90
51655;DHT22;37732;53.106;7.030;2024-01-07T04:15:21;0.90;99.90
51655;DHT22;37732;53.106;7.030;2024-01-07T04:17:47;-0.10;99.90
51655;DHT22;37732;53.106;7.030;2024-01-07T04:20:13;0.20;99.90
51655;DHT22;37732;53.106;7.030;2024-01-07T04:22:39;-0.10;99.90
51655;DHT22;37732;53.106;7.030;2024-01-07T04:25:05;0.20;99.90
51655;DHT22;37732;53.106;7.030;2024-01-07T04:27:37;-0.10;99.90
51655;DHT22;37732;53.106;7.030;2024-01-07T04:30:04;-0.10;99.90
51655;DHT22;37732;53.106;7.030;2024-01-07T04:32:29;-0.10;99.90
51655;DHT22;37732;53.106;7.030;2024-01-07T04:34:55;-0.10;99.90
51655;DHT22;37732;53.106;7.030;2024-01-07T04:37:22;0.80;99.90
51655;DHT22;37732;53.106;7.030;2024-01-07T04:39:48;-0.10;99.90
51655;DHT22;37732;53.106;7.030;2024-01-07T04:42:14;-0.60;99.90
51655;DHT22;37732;53.106;7.030;2024-01-07T04:44:40;0.60;99.90
51655;DHT22;37732;53.106;7.030;2024-01-07T04:47:25;1.10;99.90
51655;DHT22;37732;53.106;7.030;2024-01-07T04:49:52;-0.10;99.90
51655;DHT22;37732;53.106;7.030;2024-01-07T04:52:17;-0.10;99.90
51655;DHT22;37732;53.106;7.030;2024-01-07T04:54:43;-0.10;99.90
51655;DHT22;37732;53.106;7.030;2024-01-07T04:57:08;-0.20;99.90
51655;DHT22;37732;53.106;7.030;2024-01-07T04:59:34;0.70;99.90
51655;DHT22;37732;53.106;7.030;2024-01-07T05:02:00;0.20;99.90
51655;DHT22;37732;53.106;7.030;2024-01-07T05:04:25;-0.10;99.90
51655;DHT22;37732;53.106;7.030;2024-01-07T05:06:51;-0.20;99.90
51655;DHT22;37732;53.106;7.030;2024-01-07T05:09:17;0.60;99.90
51655;DHT22;37732;53.106;7.030;2024-01-07T05:11:43;-0.20;99.90
51655;DHT22;37732;53.106;7.030;2024-01-07T05:14:08;0.40;99.90
51655;DHT22;37732;53.106;7.030;2024-01-07T05:16:34;-0.20;99.90
51655;DHT22;37732;53.106;7.030;2024-01-07T05:19:00;-0.20;99.90
51655;DHT22;37732;53.106;7.030;2024-01-07T05:21:25;-0.10;99.90
51655;DHT22;37732;53.106;7.030;2024-01-07T05:23:51;-0.20;99.90
51655;DHT22;37732;53.106;7.030;2024-01-07T05:26:17;0.20;99.90
51655;DHT22;37732;53.106;7.030;2024-01-07T05:28:43;0.80;99.90
51655;DHT22;37732;53.106;7.030;2024-01-07T05:31:15;0.60;99.90
51655;DHT22;37732;53.106;7.030;2024-01-07T05:33:45;0.20;99.90
51655;DHT22;37732;53.106;7.030;2024-01-07T05:36:14;-0.10;99.90
51655;DHT22;37732;53.106;7.030;2024-01-07T05:38:43;0.20;99.90
51655;DHT22;37732;53.106;7.030;2024-01-07T05:41:08;-0.20;99.90
51655;DHT22;37732;53.106;7.030;2024-01-07T05:43:35;0.30;99.90
51655;DHT22;37732;53.106;7.030;2024-01-07T05:46:01;-0.20;99.90
51655;DHT22;37732;53.106;7.030;2024-01-07T05:48:28;-0.20;99.90
51655;DHT22;37732;53.106;7.030;2024-01-07T05:50:54;-0.20;99.90
51655;DHT22;37732;53.106;7.030;2024-01-07T05:53:20;-0.10;99.90
51655;DHT22;37732;53.106;7.030;2024-01-07T05:55:45;0.70;99.90
51655;DHT22;37732;53.106;7.030;2024-01-07T05:58:11;0.00;99.90
51655;DHT22;37732;53.106;7.030;2024-01-07T06:00:37;-0.20;99.90
51655;DHT22;37732;53.106;7.030;2024-01-07T06:03:03;-0.10;99.90
51655;DHT22;37732;53.106;7.030;2024-01-07T06:05:29;-0.20;99.90
51655;DHT22;37732;53.106;7.030;2024-01-07T06:07:55;0.00;99.90
51655;DHT22;37732;53.106;7.030;2024-01-07T06:10:21;0.90;99.90
51655;DHT22;37732;53.106;7.030;2024-01-07T06:12:46;-0.20;99.90
51655;DHT22;37732;53.106;7.030;2024-01-07T06:15:12;0.70;99.90
51655;DHT22;37732;53.106;7.030;2024-01-07T06:17:38;-0.10;99.90
51655;DHT22;37732;53.106;7.030;2024-01-07T06:20:04;-0.10;99.90
51655;DHT22;37732;53.106;7.030;2024-01-07T06:22:31;-0.20;99.90
51655;DHT22;37732;53.106;7.030;2024-01-07T06:24:56;-0.30;99.90
51655;DHT22;37732;53.106;7.030;2024-01-07T06:27:22;0.80;99.90
51655;DHT22;37732;53.106;7.030;2024-01-07T06:29:48;-0.20;99.90
51655;DHT22;37732;53.106;7.030;2024-01-07T06:32:13;-0.30;99.90
51655;DHT22;37732;53.106;7.030;2024-01-07T06:34:39;-0.20;99.90
51655;DHT22;37732;53.106;7.030;2024-01-07T06:37:05;-0.20;99.90
51655;DHT22;37732;53.106;7.030;2024-01-07T06:39:33;0.20;99.90
51655;DHT22;37732;53.106;7.030;2024-01-07T06:41:59;-0.10;99.90
51655;DHT22;37732;53.106;7.030;2024-01-07T06:44:25;-0.20;99.90
51655;DHT22;37732;53.106;7.030;2024-01-07T06:46:51;0.30;99.90
51655;DHT22;37732;53.106;7.030;2024-01-07T06:49:17;-0.80;99.90
51655;DHT22;37732;53.106;7.030;2024-01-07T06:51:43;-0.20;99.90
51655;DHT22;37732;53.106;7.030;2024-01-07T06:54:09;-0.20;99.90
51655;DHT22;37732;53.106;7.030;2024-01-07T06:56:34;-0.20;99.90
51655;DHT22;37732;53.106;7.030;2024-01-07T06:59:00;-0.40;99.90
51655;DHT22;37732;53.106;7.030;2024-01-07T07:01:26;-0.70;99.90
51655;DHT22;37732;53.106;7.030;2024-01-07T07:03:51;0.20;99.90
51655;DHT22;37732;53.106;7.030;2024-01-07T07:06:17;-0.30;99.90
51655;DHT22;37732;53.106;7.030;2024-01-07T07:08:43;-0.30;99.90
51655;DHT22;37732;53.106;7.030;2024-01-07T07:11:09;0.10;99.90
51655;DHT22;37732;53.106;7.030;2024-01-07T07:13:34;-0.50;99.90
51655;DHT22;37732;53.106;7.030;2024-01-07T07:16:00;0.60;99.90
51655;DHT22;37732;53.106;7.030;2024-01-07T07:18:26;0.50;99.90
51655;DHT22;37732;53.106;7.030;2024-01-07T07:20:52;0.60;99.90
51655;DHT22;37732;53.106;7.030;2024-01-07T07:23:18;0.00;99.90
51655;DHT22;37732;53.106;7.030;2024-01-07T07:25:43;-0.50;99.90
51655;DHT22;37732;53.106;7.030;2024-01-07T07:28:09;0.10;99.90
51655;DHT22;37732;53.106;7.030;2024-01-07T07:30:35;-0.90;99.90
51655;DHT22;37732;53.106;7.030;2024-01-07T07:33:01;-0.60;99.90
51655;DHT22;37732;53.106;7.030;2024-01-07T07:35:27;-0.30;99.90
51655;DHT22;37732;53.106;7.030;2024-01-07T07:37:54;-0.90;99.90
51655;DHT22;37732;53.106;7.030;2024-01-07T07:40:20;-0.70;99.90
51655;DHT22;37732;53.106;7.030;2024-01-07T07:42:46;-0.70;99.90
51655;DHT22;37732;53.106;7.030;2024-01-07T07:45:12;-0.70;99.90
51655;DHT22;37732;53.106;7.030;2024-01-07T07:47:38;-0.80;99.90
51655;DHT22;37732;53.106;7.030;2024-01-07T07:50:06;0.00;99.90
51655;DHT22;37732;53.106;7.030;2024-01-07T07:52:33;-0.80;99.90
51655;DHT22;37732;53.106;7.030;2024-01-07T07:54:58;-0.80;99.90
51655;DHT22;37732;53.106;7.030;2024-01-07T07:57:24;-0.10;99.90
51655;DHT22;37732;53.106;7.030;2024-01-07T07:59:51;-0.80;99.90
51655;DHT22;37732;53.106;7.030;2024-01-07T08:02:16;-0.90;99.90
51655;DHT22;37732;53.106;7.030;2024-01-07T08:04:43;-0.90;99.90
51655;DHT22;37732;53.106;7.030;2024-01-07T08:07:09;-0.80;99.90
51655;DHT22;37732;53.106;7.030;2024-01-07T08:09:35;-0.80;99.90
51655;DHT22;37732;53.106;7.030;2024-01-07T08:12:04;-0.80;99.90
51655;DHT22;37732;53.106;7.030;2024-01-07T08:14:31;-0.80;99.90
51655;DHT22;37732;53.106;7.030;2024-01-07T08:16:57;-0.70;99.90
51655;DHT22;37732;53.106;7.030;2024-01-07T08:19:23;-0.10;99.90
51655;DHT22;37732;53.106;7.030;2024-01-07T08:21:48;-0.40;99.90
51655;DHT22;37732;53.106;7.030;2024-01-07T08:24:14;-0.40;99.90
51655;DHT22;37732;53.106;7.030;2024-01-07T08:26:40;-0.60;99.90
51655;DHT22;37732;53.106;7.030;2024-01-07T08:29:06;0.50;99.90
51655;DHT22;37732;53.106;7.030;2024-01-07T08:31:32;-0.60;99.90
51655;DHT22;37732;53.106;7.030;2024-01-07T08:33:58;0.20;99.90
51655;DHT22;37732;53.106;7.030;2024-01-07T08:36:23;-0.50;99.90
51655;DHT22;37732;53.106;7.030;2024-01-07T08:38:49;0.30;99.90
51655;DHT22;37732;53.106;7.030;2024-01-07T08:41:15;0.30;99.90
51655;DHT22;37732;53.106;7.030;2024-01-07T08:43:41;0.70;99.90
51655;DHT22;37732;53.106;7.030;2024-01-07T08:46:07;-0.50;99.90
51655;DHT22;37732;53.106;7.030;2024-01-07T08:48:33;-0.50;99.90
51655;DHT22;37732;53.106;7.030;2024-01-07T08:50:59;-0.40;99.90
51655;DHT22;37732;53.106;7.030;2024-01-07T08:53:24;-0.60;99.90
51655;DHT22;37732;53.106;7.030;2024-01-07T08:55:50;-0.30;99.90
51655;DHT22;37732;53.106;7.030;2024-01-07T08:58:16;-0.50;99.90
51655;DHT22;37732;53.106;7.030;2024-01-07T09:00:43;0.30;99.90
51655;DHT22;37732;53.106;7.030;2024-01-07T09:03:09;0.10;99.90
51655;DHT22;37732;53.106;7.030;2024-01-07T09:05:35;0.30;99.90
51655;DHT22;37732;53.106;7.030;2024-01-07T09:08:00;-0.20;99.90
51655;DHT22;37732;53.106;7.030;2024-01-07T09:10:26;0.70;99.90
51655;DHT22;37732;53.106;7.030;2024-01-07T09:12:52;0.00;99.90
51655;DHT22;37732;53.106;7.030;2024-01-07T09:15:19;0.40;99.90
51655;DHT22;37732;53.106;7.030;2024-01-07T09:17:46;-0.20;99.90
51655;DHT22;37732;53.106;7.030;2024-01-07T09:20:12;0.40;99.90
51655;DHT22;37732;53.106;7.030;2024-01-07T09:22:39;0.50;99.90
51655;DHT22;37732;53.106;7.030;2024-01-07T09:25:06;-0.10;99.90
51655;DHT22;37732;53.106;7.030;2024-01-07T09:27:33;-0.10;99.90
51655;DHT22;37732;53.106;7.030;2024-01-07T09:29:59;0.30;99.90
51655;DHT22;37732;53.106;7.030;2024-01-07T09:32:24;0.90;99.90
51655;DHT22;37732;53.106;7.030;2024-01-07T09:34:50;0.00;99.90
51655;DHT22;37732;53.106;7.030;2024-01-07T09:37:17;0.10;99.90
51655;DHT22;37732;53.106;7.030;2024-01-07T09:39:43;1.20;99.90
51655;DHT22;37732;53.106;7.030;2024-01-07T09:42:14;0.10;99.90
51655;DHT22;37732;53.106;7.030;2024-01-07T09:44:40;0.80;99.90
51655;DHT22;37732;53.106;7.030;2024-01-07T09:47:12;0.90;99.90
51655;DHT22;37732;53.106;7.030;2024-01-07T09:49:42;0.20;99.90
51655;DHT22;37732;53.106;7.030;2024-01-07T09:52:10;0.20;99.90
51655;DHT22;37732;53.106;7.030;2024-01-07T09:54:37;0.20;99.90
51655;DHT22;37732;53.106;7.030;2024-01-07T09:57:07;0.30;99.90
51655;DHT22;37732;53.106;7.030;2024-01-07T09:59:34;0.50;99.90
51655;DHT22;37732;53.106;7.030;2024-01-07T10:02:00;0.30;99.90
51655;DHT22;37732;53.106;7.030;2024-01-07T10:04:26;0.40;99.90
51655;DHT22;37732;53.106;7.030;2024-01-07T10:06:58;0.40;99.90
51655;DHT22;37732;53.106;7.030;2024-01-07T10:09:28;0.70;99.90
51655;DHT22;37732;53.106;7.030;2024-01-07T10:11:54;1.00;99.90
51655;DHT22;37732;53.106;7.030;2024-01-07T10:14:20;0.50;99.90
51655;DHT22;37732;53.106;7.030;2024-01-07T10:16:48;0.40;99.90
51655;DHT22;37732;53.106;7.030;2024-01-07T10:19:25;0.50;99.90
51655;DHT22;37732;53.106;7.030;2024-01-07T10:22:04;1.20;99.90
51655;DHT22;37732;53.106;7.030;2024-01-07T10:24:38;0.60;99.90
51655;DHT22;37732;53.106;7.030;2024-01-07T10:27:04;0.60;99.90
51655;DHT22;37732;53.106;7.030;2024-01-07T10:29:30;0.60;99.90
51655;DHT22;37732;53.106;7.030;2024-01-07T10:31:57;0.40;99.90
51655;DHT22;37732;53.106;7.030;2024-01-07T10:34:24;0.70;99.90
51655;DHT22;37732;53.106;7.030;2024-01-07T10:36:52;1.30;99.90
51655;DHT22;37732;53.106;7.030;2024-01-07T10:39:19;0.60;99.90
51655;DHT22;37732;53.106;7.030;2024-01-07T10:41:46;0.70;99.90
51655;DHT22;37732;53.106;7.030;2024-01-07T10:44:13;0.80;99.90
51655;DHT22;37732;53.106;7.030;2024-01-07T10:46:39;1.60;99.90
51655;DHT22;37732;53.106;7.030;2024-01-07T10:49:21;0.80;99.90
51655;DHT22;37732;53.106;7.030;2024-01-07T10:52:06;0.80;99.90
51655;DHT22;37732;53.106;7.030;2024-01-07T10:54:33;0.80;99.90
51655;DHT22;37732;53.106;7.030;2024-01-07T10:57:06;0.80;99.90
51655;DHT22;37732;53.106;7.030;2024-01-07T10:59:36;0.90;99.90
51655;DHT22;37732;53.106;7.030;2024-01-07T11:02:02;0.90;99.90
51655;DHT22;37732;53.106;7.030;2024-01-07T11:07:19;1.10;99.90
51655;DHT22;37732;53.106;7.030;2024-01-07T11:10:16;1.10;99.90
51655;DHT22;37732;53.106;7.030;2024-01-07T11:12:44;1.20;99.90
51655;DHT22;37732;53.106;7.030;2024-01-07T11:18:22;1.20;99.90
51655;DHT22;37732;53.106;7.030;2024-01-07T11:20:49;1.20;99.90
51655;DHT22;37732;53.106;7.030;2024-01-07T11:23:34;1.30;99.90
51655;DHT22;37732;53.106;7.030;2024-01-07T11:26:06;1.20;99.90
51655;DHT22;37732;53.106;7.030;2024-01-07T11:28:53;1.60;99.90
51655;DHT22;37732;53.106;7.030;2024-01-07T11:31:21;1.20;99.90
51655;DHT22;37732;53.106;7.030;2024-01-07T11:33:48;1.00;99.90
51655;DHT22;37732;53.106;7.030;2024-01-07T11:36:15;1.30;99.90
51655;DHT22;37732;53.106;7.030;2024-01-07T11:38:45;1.20;99.90
51655;DHT22;37732;53.106;7.030;2024-01-07T11:41:12;0.90;99.90
51655;DHT22;37732;53.106;7.030;2024-01-07T11:43:51;1.30;99.90
51655;DHT22;37732;53.106;7.030;2024-01-07T11:46:16;1.00;99.90
51655;DHT22;37732;53.106;7.030;2024-01-07T11:48:45;0.80;99.90
51655;DHT22;37732;53.106;7.030;2024-01-07T11:51:11;1.60;99.90
51655;DHT22;37732;53.106;7.030;2024-01-07T11:53:36;0.70;99.90
51655;DHT22;37732;53.106;7.030;2024-01-07T11:56:02;0.80;99.90
51655;DHT22;37732;53.106;7.030;2024-01-07T11:58:28;0.80;99.90
51655;DHT22;37732;53.106;7.030;2024-01-07T12:00:53;0.80;99.90
51655;DHT22;37732;53.106;7.030;2024-01-07T12:03:19;0.80;99.90
51655;DHT22;37732;53.106;7.030;2024-01-07T12:05:45;0.90;99.90
51655;DHT22;37732;53.106;7.030;2024-01-07T12:08:13;0.90;99.90
51655;DHT22;37732;53.106;7.030;2024-01-07T12:10:39;1.00;99.90
51655;DHT22;37732;53.106;7.030;2024-01-07T12:13:06;0.90;99.90
51655;DHT22;37732;53.106;7.030;2024-01-07T12:15:32;1.20;99.90
51655;DHT22;37732;53.106;7.030;2024-01-07T12:17:59;1.00;99.90
51655;DHT22;37732;53.106;7.030;2024-01-07T12:20:27;1.10;99.90
51655;DHT22;37732;53.106;7.030;2024-01-07T12:22:57;1.10;99.90
51655;DHT22;37732;53.106;7.030;2024-01-07T12:25:23;1.00;99.90
51655;DHT22;37732;53.106;7.030;2024-01-07T12:27:51;1.00;99.90
51655;DHT22;37732;53.106;7.030;2024-01-07T12:30:20;1.00;99.90
51655;DHT22;37732;53.106;7.030;2024-01-07T12:32:47;0.90;99.90
51655;DHT22;37732;53.106;7.030;2024-01-07T12:35:12;0.80;99.90
51655;DHT22;37732;53.106;7.030;2024-01-07T12:37:38;0.80;99.90
51655;DHT22;37732;53.106;7.030;2024-01-07T12:40:04;0.80;99.90
51655;DHT22;37732;53.106;7.030;2024-01-07T12:42:34;0.70;99.90
51655;DHT22;37732;53.106;7.030;2024-01-07T12:45:00;0.70;99.90
51655;DHT22;37732;53.106;7.030;2024-01-07T12:47:25;0.50;99.90
51655;DHT22;37732;53.106;7.030;2024-01-07T12:49:52;0.50;99.90
51655;DHT22;37732;53.106;7.030;2024-01-07T12:52:17;1.70;99.90
51655;DHT22;37732;53.106;7.030;2024-01-07T12:54:44;1.20;99.90
51655;DHT22;37732;53.106;7.030;2024-01-07T12:57:09;0.60;99.90
51655;DHT22;37732;53.106;7.030;2024-01-07T12:59:35;0.60;99.90
51655;DHT22;37732;53.106;7.030;2024-01-07T13:02:01;0.60;99.90
51655;DHT22;37732;53.106;7.030;2024-01-07T13:04:26;0.60;99.90
51655;DHT22;37732;53.106;7.030;2024-01-07T13:06:52;0.50;99.90
51655;DHT22;37732;53.106;7.030;2024-01-07T13:09:18;0.90;99.90
51655;DHT22;37732;53.106;7.030;2024-01-07T13:11:44;0.80;99.90
51655;DHT22;37732;53.106;7.030;2024-01-07T13:14:10;0.50;99.90
51655;DHT22;37732;53.106;7.030;2024-01-07T13:16:35;0.50;99.90
51655;DHT22;37732;53.106;7.030;2024-01-07T13:19:01;0.50;99.90
51655;DHT22;37732;53.106;7.030;2024-01-07T13:21:26;0.60;99.90
51655;DHT22;37732;53.106;7.030;2024-01-07T13:23:52;1.30;99.90
51655;DHT22;37732;53.106;7.030;2024-01-07T13:26:18;0.70;99.90
51655;DHT22;37732;53.106;7.030;2024-01-07T13:28:43;1.30;99.90
51655;DHT22;37732;53.106;7.030;2024-01-07T13:31:09;0.60;99.90
51655;DHT22;37732;53.106;7.030;2024-01-07T13:33:37;0.70;99.90
51655;DHT22;37732;53.106;7.030;2024-01-07T13:36:03;0.70;99.90
51655;DHT22;37732;53.106;7.030;2024-01-07T13:38:34;0.70;99.90
51655;DHT22;37732;53.106;7.030;2024-01-07T13:41:00;0.70;99.90
51655;DHT22;37732;53.106;7.030;2024-01-07T13:43:26;0.70;99.90
51655;DHT22;37732;53.106;7.030;2024-01-07T13:45:55;0.80;99.90
51655;DHT22;37732;53.106;7.030;2024-01-07T13:48:20;0.70;99.90
51655;DHT22;37732;53.106;7.030;2024-01-07T13:50:46;0.70;99.90
51655;DHT22;37732;53.106;7.030;2024-01-07T13:53:13;1.70;99.90
51655;DHT22;37732;53.106;7.030;2024-01-07T13:55:40;1.20;99.90
51655;DHT22;37732;53.106;7.030;2024-01-07T13:58:05;0.70;99.90
51655;DHT22;37732;53.106;7.030;2024-01-07T14:00:31;0.70;99.90
51655;DHT22;37732;53.106;7.030;2024-01-07T14:02:57;1.40;99.90
51655;DHT22;37732;53.106;7.030;2024-01-07T14:05:23;0.70;99.90
51655;DHT22;37732;53.106;7.030;2024-01-07T14:07:48;1.00;99.90
51655;DHT22;37732;53.106;7.030;2024-01-07T14:10:14;0.70;99.90
51655;DHT22;37732;53.106;7.030;2024-01-07T14:12:40;0.90;99.90
51655;DHT22;37732;53.106;7.030;2024-01-07T14:15:06;1.40;99.90
51655;DHT22;37732;53.106;7.030;2024-01-07T14:17:34;0.60;99.90
51655;DHT22;37732;53.106;7.030;2024-01-07T14:20:00;0.90;99.90
51655;DHT22;37732;53.106;7.030;2024-01-07T14:22:26;1.80;99.90
51655;DHT22;37732;53.106;7.030;2024-01-07T14:24:51;0.60;99.90
51655;DHT22;37732;53.106;7.030;2024-01-07T14:27:18;1.60;99.90
51655;DHT22;37732;53.106;7.030;2024-01-07T14:29:44;0.50;99.90
51655;DHT22;37732;53.106;7.030;2024-01-07T14:32:11;0.40;99.90
51655;DHT22;37732;53.106;7.030;2024-01-07T14:34:40;0.50;99.90
51655;DHT22;37732;53.106;7.030;2024-01-07T14:37:08;0.50;99.90
51655;DHT22;37732;53.106;7.030;2024-01-07T14:39:39;0.50;99.90
51655;DHT22;37732;53.106;7.030;2024-01-07T14:42:04;0.30;99.90
51655;DHT22;37732;53.106;7.030;2024-01-07T14:44:30;0.30;99.90
51655;DHT22;37732;53.106;7.030;2024-01-07T14:46:56;0.30;99.90
51655;DHT22;37732;53.106;7.030;2024-01-07T14:49:22;0.40;99.90
51655;DHT22;37732;53.106;7.030;2024-01-07T14:51:47;0.20;99.90
51655;DHT22;37732;53.106;7.030;2024-01-07T14:54:13;0.10;99.90
51655;DHT22;37732;53.106;7.030;2024-01-07T14:56:39;0.20;99.90
51655;DHT22;37732;53.106;7.030;2024-01-07T14:59:05;0.10;99.90
51655;DHT22;37732;53.106;7.030;2024-01-07T15:01:31;0.90;99.90
51655;DHT22;37732;53.106;7.030;2024-01-07T15:03:56;1.10;99.90
51655;DHT22;37732;53.106;7.030;2024-01-07T15:06:22;0.00;99.90
51655;DHT22;37732;53.106;7.030;2024-01-07T15:08:48;0.00;99.90
51655;DHT22;37732;53.106;7.030;2024-01-07T15:11:14;0.00;99.90
51655;DHT22;37732;53.106;7.030;2024-01-07T15:13:41;0.70;99.90
51655;DHT22;37732;53.106;7.030;2024-01-07T15:16:08;0.70;99.90
51655;DHT22;37732;53.106;7.030;2024-01-07T15:18:34;-0.20;99.90
51655;DHT22;37732;53.106;7.030;2024-01-07T15:21:00;-0.20;99.90
51655;DHT22;37732;53.106;7.030;2024-01-07T15:23:26;-0.20;99.90
51655;DHT22;37732;53.106;7.030;2024-01-07T15:25:52;-0.30;99.90
51655;DHT22;37732;53.106;7.030;2024-01-07T15:28:18;0.10;99.90
51655;DHT22;37732;53.106;7.030;2024-01-07T15:30:43;0.40;99.90
51655;DHT22;37732;53.106;7.030;2024-01-07T15:33:09;-0.40;99.90
51655;DHT22;37732;53.106;7.030;2024-01-07T15:35:35;0.80;99.90
51655;DHT22;37732;53.106;7.030;2024-01-07T15:38:01;-0.50;99.90
51655;DHT22;37732;53.106;7.030;2024-01-07T15:40:27;-0.50;99.90
51655;DHT22;37732;53.106;7.030;2024-01-07T15:42:52;0.10;99.90
51655;DHT22;37732;53.106;7.030;2024-01-07T15:45:18;-0.60;99.90